»·PEaware :: N416JK KBLH-KWJF

N416JK :: KBLH-KWJF

FLIGHT INFORMATION

Flight Status: Arrived
Operator: Privately registered:
United States
More flights under this callsign
Pilot: John K. (4202)
Aircraft: Unknown
(DA62)
More flights by this aircraft type
Origin: KBLH Blythe
United States
Destination: KWJF Gen Fox
United States
More flights between these airports :: More routes between these airports
Route: +BLH V16 PSP V386 PMD
File this flight plan on PilotEdge
Remarks:
Altitude:
(Current/Filed)
14,000ft
Speed:
(Current/Filed)
175kts
Departed: 09-May-18 02:39 PM
Arrived: 09-May-18 03:59 PM
Distance/Time
Traveled:
186nm/1:20
Distance/Time
To Go:
Arrived

Flight Plot

Page will automatically refresh every two minutes.

Flight plan parsing failed; only flown route is shown


Map Options




Map Legend


Flown Route
Filed Route
Departure Airport
Arrival Airport
Navaid (VOR, NDB)
Fix

Horizontal Profiles

Position Reports

Time Latitude Longitude Heading Altitude Ground
Speed
09-May-18 14:21 33.614051 -114.713081 91 394ft 0kts
09-May-18 14:22 33.614051 -114.713081 91 394ft 0kts
09-May-18 14:23 33.614051 -114.713081 91 394ft 0kts
09-May-18 14:24 33.614051 -114.713081 91 394ft 0kts
09-May-18 14:25 33.614051 -114.713081 91 394ft 0kts
09-May-18 14:26 33.614051 -114.713081 91 394ft 0kts
09-May-18 14:27 33.614051 -114.713081 91 394ft 0kts
09-May-18 14:28 33.614051 -114.713081 91 394ft 0kts
09-May-18 14:29 33.614051 -114.713081 91 394ft 0kts
09-May-18 14:30 33.614051 -114.713081 91 394ft 0kts
09-May-18 14:31 33.614051 -114.713081 91 394ft 0kts
09-May-18 14:32 33.614051 -114.713081 91 394ft 0kts
09-May-18 14:33 33.614051 -114.713081 91 394ft 0kts
09-May-18 14:34 33.615087 -114.715101 322 396ft 17kts
09-May-18 14:35 33.618724 -114.715168 0 397ft 0kts
09-May-18 14:36 33.618724 -114.715168 1 397ft 0kts
09-May-18 14:37 33.618724 -114.715168 1 397ft 0kts
09-May-18 14:38 33.619166 -114.715322 289 397ft 13kts
09-May-18 14:39 33.627494 -114.716882 357 397ft 47kts
09-May-18 14:40 33.630312 -114.716425 238 397ft 0kts
09-May-18 14:41 33.630312 -114.716425 238 397ft 0kts
09-May-18 14:42 33.629942 -114.716773 181 397ft 13kts
09-May-18 14:43 33.611565 -114.720522 228 1017ft 97kts
09-May-18 14:44 33.597778 -114.757459 252 1784ft 140kts
09-May-18 14:45 33.603741 -114.806338 278 2510ft 152kts
09-May-18 14:46 33.611949 -114.854463 278 3495ft 144kts
09-May-18 14:47 33.619886 -114.901050 278 4492ft 141kts
09-May-18 14:48 33.627345 -114.944763 278 5455ft 118kts
09-May-18 14:49 33.633216 -114.979336 278 6404ft 94kts
09-May-18 14:50 33.637834 -115.006629 279 7288ft 77kts
09-May-18 14:51 33.642080 -115.031792 280 7978ft 79kts
09-May-18 14:52 33.647050 -115.061248 281 8571ft 106kts
09-May-18 14:53 33.653755 -115.101053 281 9126ft 132kts
09-May-18 14:54 33.657633 -115.124160 281 9395ft 139kts
09-May-18 14:55 33.665469 -115.170770 282 9901ft 145kts
09-May-18 14:56 33.671600 -115.207330 282 10282ft 147kts
09-May-18 14:57 33.679735 -115.255872 283 10779ft 149kts
09-May-18 14:58 33.689148 -115.304321 298 11271ft 149kts
09-May-18 14:59 33.709340 -115.347743 298 11763ft 150kts
09-May-18 15:00 33.729932 -115.391474 301 12252ft 150kts
09-May-18 15:01 33.747661 -115.428461 301 12671ft 150kts
09-May-18 15:02 33.768529 -115.472046 301 13163ft 150kts
09-May-18 15:03 33.789235 -115.515473 301 13653ft 150kts
09-May-18 15:04 33.810240 -115.559667 301 14000ft 158kts
09-May-18 15:05 33.832581 -115.606718 301 13997ft 161kts
09-May-18 15:06 33.854965 -115.653936 300 14000ft 166kts
09-May-18 15:07 33.878026 -115.703286 299 13997ft 171kts
09-May-18 15:08 33.901515 -115.753089 301 13998ft 172kts
09-May-18 15:09 33.925209 -115.802755 301 14001ft 172kts
09-May-18 15:10 33.948838 -115.852796 300 13996ft 172kts
09-May-18 15:11 33.972140 -115.902421 300 14018ft 171kts
09-May-18 15:12 33.995210 -115.952223 301 14039ft 171kts
09-May-18 15:13 34.018559 -116.001908 299 14063ft 171kts
09-May-18 15:14 34.041851 -116.051932 299 14084ft 171kts
09-May-18 15:15 34.065415 -116.101624 299 14109ft 171kts
09-May-18 15:16 34.088767 -116.151740 298 14044ft 176kts
09-May-18 15:17 34.113841 -116.205553 301 13459ft 190kts
09-May-18 15:18 34.140156 -116.261586 300 12867ft 193kts
09-May-18 15:19 34.166236 -116.317870 300 12271ft 193kts
09-May-18 15:20 34.191712 -116.372551 300 12098ft 179kts
09-May-18 15:21 34.215904 -116.424589 300 12104ft 176kts
09-May-18 15:22 34.239726 -116.476017 300 12097ft 176kts
09-May-18 15:23 34.263391 -116.527826 301 12077ft 176kts
09-May-18 15:24 34.287445 -116.579404 300 12062ft 176kts
09-May-18 15:25 34.310918 -116.631038 298 12042ft 176kts
09-May-18 15:26 34.334682 -116.682601 300 12053ft 175kts
09-May-18 15:27 34.358582 -116.734036 300 12062ft 175kts
09-May-18 15:28 34.381887 -116.785264 301 12137ft 176kts
09-May-18 15:29 34.400589 -116.826014 297 12135ft 178kts
09-May-18 15:30 34.424617 -116.878521 299 12137ft 179kts
09-May-18 15:31 34.449190 -116.931827 298 12001ft 183kts
09-May-18 15:32 34.473572 -116.985125 298 11999ft 179kts
09-May-18 15:33 34.491832 -117.025183 298 12001ft 178kts
09-May-18 15:34 34.511237 -117.067781 298 11983ft 172kts
09-May-18 15:35 34.533802 -117.117417 297 12005ft 169kts
09-May-18 15:36 34.549999 -117.170120 275 12013ft 169kts
09-May-18 15:37 34.555135 -117.225234 275 12016ft 158kts
09-May-18 15:38 34.559895 -117.277185 274 12026ft 152kts
09-May-18 15:39 34.565096 -117.329704 277 12018ft 163kts
09-May-18 15:40 34.570536 -117.384997 276 12014ft 166kts
09-May-18 15:41 34.575638 -117.440632 277 12025ft 168kts
09-May-18 15:42 34.580879 -117.497755 277 12014ft 171kts
09-May-18 15:43 34.586302 -117.555218 275 12023ft 171kts
09-May-18 15:44 34.591190 -117.612904 276 12016ft 172kts
09-May-18 15:45 34.596488 -117.670503 276 12012ft 172kts
09-May-18 15:46 34.601822 -117.728545 277 12001ft 173kts
09-May-18 15:47 34.606991 -117.786519 275 11995ft 173kts
09-May-18 15:48 34.612485 -117.845654 277 11538ft 182kts
09-May-18 15:49 34.617348 -117.903480 275 10580ft 179kts
09-May-18 15:50 34.622297 -117.960947 276 9336ft 167kts
09-May-18 15:51 34.627173 -118.016315 276 7830ft 163kts
09-May-18 15:52 34.643013 -118.062877 328 6309ft 161kts
09-May-18 15:53 34.681508 -118.087306 330 4802ft 154kts
09-May-18 15:54 34.714957 -118.107987 331 4490ft 124kts
09-May-18 15:55 34.744047 -118.126705 307 4588ft 102kts
09-May-18 15:56 34.752083 -118.156712 285 3741ft 97kts
09-May-18 15:57 34.749559 -118.185904 257 2871ft 75kts
09-May-18 15:58 34.743450 -118.209217 251 2338ft 62kts
09-May-18 15:59 34.741253 -118.214790 210 2340ft 0kts
09-May-18 16:00 34.739647 -118.216466 252 2343ft 0kts

Navigation Log

Ident Type
Flight plan parsing failed, navigation log unavailable